Weymouth, MA

1:17 PM EDT on August 28, 2015 (GMT -0400)
Rockland Fire HQ | | Change Station
CLOSE
Current Station
Personal Weather Station
Location: Rockland, MA
Elevation: 161 ft
Nearby Weather Stations

Elev 161 ft 42.13 °N, 70.92 °W | Updated 36 seconds ago

Partly Cloudy
Partly Cloudy
77.5 °F
Feels Like 79 °F
N
1.0
Wind Variable Wind from ENE
Gusts 6.0 mph

Today
High -- | Low -- °F
--% Chance of Precip.
Yesterday
High -- | Low -- °F
Precip. -- in
6:04 AM 7:24 PM
Waxing Gibbous, 98% visible
Pressure 30.13 in
Visibility 10.0 miles
Clouds Mostly Cloudy 4800 ft
Heat Index 79 °F
Dew Point 61 °F
Humidity 56%
Rainfall 0.00 in
Snow Depth Not available.
UV 5 out of 12
Pollen 9.50 out of 12
Air Quality Not available.
Flu Activity Not available.
METAR KOWD 281653Z 32007KT 10SM BKN048 25/14 A3013 RMK AO2 SLP203 T02500139
Pressure 30.13 in
Visibility 10.0 miles
Clouds Mostly Cloudy 4800 ft
Heat Index 79 °F
Dew Point 61 °F
Humidity 56%
Rainfall 0.00 in
Snow Depth Not available.
UV 5 out of 12
Pollen 9.50 out of 12
Air Quality Not available.
Flu Activity Not available.
METAR KOWD 281653Z 32007KT 10SM BKN048 25/14 A3013 RMK AO2 SLP203 T02500139

10-Day Weather Forecast

×

Almanac

Astronomy

Aug. 28, 2015 Rise Set
Actual Time
Civil Twilight
Nautical Twilight
Astronomical Twilight
Moon
Length of Visible Light
Length of Day
Tomorrow will be .
, % of the Moon is Illuminated

Today's Extremes

State Highs State Lows

Community

WunderPhotos

Upload Photos

1,850,438 photos uploaded!

WunderBlogs® & News

Nearby

Air Quality

  Air Quality AQ Index Pollutant
Not available.

Snow Depth

Station Depth Elevation

Earthquake Activity

City Distance Mag. Time & Date
Minimum magnitude displayed is 2.5.

Coastal Water Temperatures

Place Temperature

Stations

Nearby Weather Stations

Station Location Temp. Windchill Dew Point Humidity Wind Precip. Elev Updated Type